Terminal Aerodrome Forecast
Issued by NWS

Home | Current Version | Previous Version | Text Only | Print | Product List | Glossary On
Versions: 1 2 3 4 5 6 7 8 9 10 11 12 13 14 15 16 17 18 19 20 21 22
000
FTUS43 KGRB 041226 AAA
TAFATW
TAF AMD
KATW 041226Z 0412/0512 VRB02KT P6SM SCT004 BKN010
      TEMPO 0412/0414 5SM BR BKN004
     FM041500 06005KT P6SM BKN015
     FM041700 08005KT P6SM SCT020 SCT035
     FM042100 14004KT P6SM SCT040
     FM050400 15003KT 5SM BR SKC
      TEMPO 0508/0512 2SM BR SCT006=

USA.gov is the U.S. government's official web portal to all federal, state and local government web resources and services.